sensor_id;sensor_type;location;lat;lon;timestamp;pressure;altitude;pressure_sealevel;temperature;humidity
43741;BME280;29352;48.708;9.290;2023-05-08T00:01:06;98092.81;;;6.28;100.00
43741;BME280;29352;48.708;9.290;2023-05-08T00:03:32;98094.28;;;6.01;100.00
43741;BME280;29352;48.708;9.290;2023-05-08T00:05:57;98094.19;;;5.80;100.00
43741;BME280;29352;48.708;9.290;2023-05-08T00:08:23;98093.72;;;6.06;100.00
43741;BME280;29352;48.708;9.290;2023-05-08T00:10:48;98094.63;;;6.28;100.00
43741;BME280;29352;48.708;9.290;2023-05-08T00:13:14;98096.75;;;6.32;100.00
43741;BME280;29352;48.708;9.290;2023-05-08T00:15:39;98097.31;;;6.79;100.00
43741;BME280;29352;48.708;9.290;2023-05-08T00:18:05;98093.63;;;6.80;100.00
43741;BME280;29352;48.708;9.290;2023-05-08T00:20:30;98095.09;;;6.97;100.00
43741;BME280;29352;48.708;9.290;2023-05-08T00:22:56;98099.75;;;6.95;100.00
43741;BME280;29352;48.708;9.290;2023-05-08T00:25:22;98099.91;;;6.57;100.00
43741;BME280;29352;48.708;9.290;2023-05-08T00:27:48;98103.00;;;6.76;100.00
43741;BME280;29352;48.708;9.290;2023-05-08T00:30:15;98102.53;;;6.57;100.00
43741;BME280;29352;48.708;9.290;2023-05-08T00:32:40;98100.75;;;6.43;100.00
43741;BME280;29352;48.708;9.290;2023-05-08T00:35:06;98096.63;;;6.40;100.00
43741;BME280;29352;48.708;9.290;2023-05-08T00:37:32;98105.50;;;6.33;100.00
43741;BME280;29352;48.708;9.290;2023-05-08T00:39:57;98098.44;;;6.55;100.00
43741;BME280;29352;48.708;9.290;2023-05-08T00:42:22;98094.16;;;6.39;100.00
43741;BME280;29352;48.708;9.290;2023-05-08T00:44:48;98103.63;;;6.78;100.00
43741;BME280;29352;48.708;9.290;2023-05-08T00:47:14;98100.19;;;6.33;100.00
43741;BME280;29352;48.708;9.290;2023-05-08T00:49:40;98098.56;;;6.98;100.00
43741;BME280;29352;48.708;9.290;2023-05-08T00:52:07;98095.53;;;7.01;100.00
43741;BME280;29352;48.708;9.290;2023-05-08T00:54:34;98104.72;;;6.69;100.00
43741;BME280;29352;48.708;9.290;2023-05-08T00:57:05;98102.53;;;6.57;100.00
43741;BME280;29352;48.708;9.290;2023-05-08T00:59:32;98095.50;;;6.64;100.00
43741;BME280;29352;48.708;9.290;2023-05-08T01:02:00;98100.63;;;6.66;100.00
43741;BME280;29352;48.708;9.290;2023-05-08T01:04:29;98103.72;;;6.70;100.00
43741;BME280;29352;48.708;9.290;2023-05-08T01:06:55;98107.91;;;6.79;100.00
43741;BME280;29352;48.708;9.290;2023-05-08T01:09:21;98103.72;;;6.70;100.00
43741;BME280;29352;48.708;9.290;2023-05-08T01:12:17;98106.09;;;6.64;100.00
43741;BME280;29352;48.708;9.290;2023-05-08T01:15:17;98110.00;;;6.69;100.00
43741;BME280;29352;48.708;9.290;2023-05-08T01:20:52;98112.91;;;6.52;100.00
43741;BME280;29352;48.708;9.290;2023-05-08T01:24:02;98116.53;;;6.66;100.00
43741;BME280;29352;48.708;9.290;2023-05-08T01:32:29;98120.97;;;6.95;100.00
43741;BME280;29352;48.708;9.290;2023-05-08T01:37:39;98117.97;;;6.69;100.00
43741;BME280;29352;48.708;9.290;2023-05-08T01:43:25;98119.34;;;6.94;100.00
43741;BME280;29352;48.708;9.290;2023-05-08T01:46:04;98119.34;;;6.79;100.00
43741;BME280;29352;48.708;9.290;2023-05-08T01:48:34;98127.22;;;6.87;100.00
43741;BME280;29352;48.708;9.290;2023-05-08T01:51:16;98121.91;;;6.73;100.00
43741;BME280;29352;48.708;9.290;2023-05-08T01:53:53;98128.78;;;6.82;100.00
43741;BME280;29352;48.708;9.290;2023-05-08T01:56:26;98130.97;;;6.63;100.00
43741;BME280;29352;48.708;9.290;2023-05-08T01:58:56;98126.41;;;6.57;100.00
43741;BME280;29352;48.708;9.290;2023-05-08T02:01:26;98128.63;;;6.54;100.00
43741;BME280;29352;48.708;9.290;2023-05-08T02:03:54;98126.56;;;6.71;100.00
43741;BME280;29352;48.708;9.290;2023-05-08T02:06:24;98124.66;;;6.64;100.00
43741;BME280;29352;48.708;9.290;2023-05-08T02:08:52;98130.44;;;6.53;100.00
43741;BME280;29352;48.708;9.290;2023-05-08T02:11:22;98130.34;;;6.61;100.00
43741;BME280;29352;48.708;9.290;2023-05-08T02:13:50;98126.78;;;6.54;100.00
43741;BME280;29352;48.708;9.290;2023-05-08T02:16:19;98128.06;;;6.58;100.00
43741;BME280;29352;48.708;9.290;2023-05-08T02:18:50;98127.88;;;6.75;100.00
43741;BME280;29352;48.708;9.290;2023-05-08T02:21:19;98126.66;;;7.35;100.00
43741;BME280;29352;48.708;9.290;2023-05-08T02:23:47;98132.84;;;7.42;99.67
43741;BME280;29352;48.708;9.290;2023-05-08T02:26:14;98135.50;;;6.99;100.00
43741;BME280;29352;48.708;9.290;2023-05-08T02:28:41;98135.94;;;6.37;100.00
43741;BME280;29352;48.708;9.290;2023-05-08T02:31:10;98133.72;;;6.55;100.00
43741;BME280;29352;48.708;9.290;2023-05-08T02:33:40;98132.72;;;7.07;100.00
43741;BME280;29352;48.708;9.290;2023-05-08T02:36:10;98131.63;;;6.80;100.00
43741;BME280;29352;48.708;9.290;2023-05-08T02:38:40;98129.59;;;6.82;100.00
43741;BME280;29352;48.708;9.290;2023-05-08T02:41:12;98144.63;;;6.46;100.00
43741;BME280;29352;48.708;9.290;2023-05-08T02:43:40;98144.53;;;6.54;100.00
43741;BME280;29352;48.708;9.290;2023-05-08T02:46:17;98138.81;;;6.72;100.00
43741;BME280;29352;48.708;9.290;2023-05-08T02:54:57;98130.16;;;6.78;100.00
43741;BME280;29352;48.708;9.290;2023-05-08T02:57:36;98124.28;;;6.82;100.00
43741;BME280;29352;48.708;9.290;2023-05-08T03:00:19;98123.09;;;6.70;100.00
43741;BME280;29352;48.708;9.290;2023-05-08T03:03:06;98129.94;;;6.94;100.00
43741;BME280;29352;48.708;9.290;2023-05-08T03:05:42;98124.81;;;6.93;100.00
43741;BME280;29352;48.708;9.290;2023-05-08T03:08:19;98122.00;;;6.64;100.00
43741;BME280;29352;48.708;9.290;2023-05-08T03:10:54;98130.34;;;6.61;100.00
43741;BME280;29352;48.708;9.290;2023-05-08T03:13:26;98122.28;;;6.55;100.00
43741;BME280;29352;48.708;9.290;2023-05-08T03:15:57;98122.38;;;6.61;100.00
43741;BME280;29352;48.708;9.290;2023-05-08T03:18:35;98124.94;;;6.55;100.00
43741;BME280;29352;48.708;9.290;2023-05-08T03:21:08;98123.97;;;6.56;100.00
43741;BME280;29352;48.708;9.290;2023-05-08T03:23:39;98124.78;;;6.56;100.00
43741;BME280;29352;48.708;9.290;2023-05-08T03:26:07;98121.69;;;6.53;100.00
43741;BME280;29352;48.708;9.290;2023-05-08T03:28:35;98121.13;;;6.43;100.00
43741;BME280;29352;48.708;9.290;2023-05-08T03:31:06;98133.28;;;6.52;100.00
43741;BME280;29352;48.708;9.290;2023-05-08T03:33:36;98125.41;;;6.44;100.00
43741;BME280;29352;48.708;9.290;2023-05-08T03:36:03;98127.78;;;6.53;100.00
43741;BME280;29352;48.708;9.290;2023-05-08T03:38:30;98125.06;;;6.47;100.00
43741;BME280;29352;48.708;9.290;2023-05-08T03:40:57;98130.16;;;6.48;100.00
43741;BME280;29352;48.708;9.290;2023-05-08T03:43:24;98133.09;;;6.53;100.00
43741;BME280;29352;48.708;9.290;2023-05-08T03:45:54;98127.41;;;6.41;100.00
43741;BME280;29352;48.708;9.290;2023-05-08T03:48:21;98129.91;;;6.43;100.00
43741;BME280;29352;48.708;9.290;2023-05-08T03:50:48;98127.88;;;6.75;100.00
43741;BME280;29352;48.708;9.290;2023-05-08T03:53:14;98133.81;;;6.47;100.00
43741;BME280;29352;48.708;9.290;2023-05-08T03:55:40;98143.78;;;6.45;100.00
43741;BME280;29352;48.708;9.290;2023-05-08T04:06:30;98133.41;;;6.29;100.00
43741;BME280;29352;48.708;9.290;2023-05-08T04:09:38;98137.03;;;6.13;100.00
43741;BME280;29352;48.708;9.290;2023-05-08T04:15:05;98139.06;;;6.26;100.00
43741;BME280;29352;48.708;9.290;2023-05-08T04:17:41;98145.28;;;6.18;100.00
43741;BME280;29352;48.708;9.290;2023-05-08T04:20:15;98150.22;;;6.36;100.00
43741;BME280;29352;48.708;9.290;2023-05-08T04:22:46;98154.50;;;6.37;100.00
43741;BME280;29352;48.708;9.290;2023-05-08T04:25:17;98158.41;;;6.85;100.00
43741;BME280;29352;48.708;9.290;2023-05-08T04:27:45;98164.91;;;6.83;100.00
43741;BME280;29352;48.708;9.290;2023-05-08T04:30:12;98165.34;;;6.72;100.00
43741;BME280;29352;48.708;9.290;2023-05-08T04:32:40;98163.25;;;6.37;100.00
43741;BME280;29352;48.708;9.290;2023-05-08T04:35:06;98165.09;;;6.22;100.00
43741;BME280;29352;48.708;9.290;2023-05-08T04:37:32;98164.38;;;6.43;100.00
43741;BME280;29352;48.708;9.290;2023-05-08T04:39:59;98157.66;;;6.62;100.00
43741;BME280;29352;48.708;9.290;2023-05-08T04:42:26;98162.25;;;6.68;100.00
43741;BME280;29352;48.708;9.290;2023-05-08T04:44:52;98166.16;;;6.72;100.00
43741;BME280;29352;48.708;9.290;2023-05-08T04:47:18;98168.13;;;6.63;100.00
43741;BME280;29352;48.708;9.290;2023-05-08T04:49:45;98169.38;;;6.97;100.00
43741;BME280;29352;48.708;9.290;2023-05-08T04:52:10;98172.16;;;6.59;100.00
43741;BME280;29352;48.708;9.290;2023-05-08T04:54:36;98171.50;;;6.87;100.00
43741;BME280;29352;48.708;9.290;2023-05-08T04:57:02;98176.59;;;6.74;100.00
43741;BME280;29352;48.708;9.290;2023-05-08T04:59:28;98178.53;;;6.65;100.00
43741;BME280;29352;48.708;9.290;2023-05-08T05:01:54;98183.81;;;6.65;100.00
43741;BME280;29352;48.708;9.290;2023-05-08T05:04:21;98172.78;;;6.76;100.00
43741;BME280;29352;48.708;9.290;2023-05-08T05:06:46;98182.34;;;6.62;100.00
43741;BME280;29352;48.708;9.290;2023-05-08T05:09:12;98183.28;;;6.40;100.00
43741;BME280;29352;48.708;9.290;2023-05-08T05:11:37;98182.41;;;6.77;100.00
43741;BME280;29352;48.708;9.290;2023-05-08T05:14:03;98179.56;;;7.15;100.00
43741;BME280;29352;48.708;9.290;2023-05-08T05:16:29;98179.38;;;7.17;100.00
43741;BME280;29352;48.708;9.290;2023-05-08T05:18:54;98182.25;;;7.79;98.85
43741;BME280;29352;48.708;9.290;2023-05-08T05:21:20;98189.53;;;6.77;100.00
43741;BME280;29352;48.708;9.290;2023-05-08T05:23:45;98193.47;;;6.81;100.00
43741;BME280;29352;48.708;9.290;2023-05-08T05:26:10;98194.09;;;6.83;100.00
43741;BME280;29352;48.708;9.290;2023-05-08T05:28:36;98189.94;;;6.65;100.00
43741;BME280;29352;48.708;9.290;2023-05-08T05:31:02;98204.22;;;6.50;100.00
43741;BME280;29352;48.708;9.290;2023-05-08T05:33:27;98193.81;;;6.63;100.00
43741;BME280;29352;48.708;9.290;2023-05-08T05:35:53;98199.81;;;6.72;100.00
43741;BME280;29352;48.708;9.290;2023-05-08T05:38:18;98202.16;;;6.75;100.00
43741;BME280;29352;48.708;9.290;2023-05-08T05:40:44;98205.69;;;6.67;100.00
43741;BME280;29352;48.708;9.290;2023-05-08T05:43:09;98202.97;;;6.75;100.00
43741;BME280;29352;48.708;9.290;2023-05-08T05:45:35;98198.38;;;6.99;100.00
43741;BME280;29352;48.708;9.290;2023-05-08T05:48:01;98199.41;;;7.19;100.00
43741;BME280;29352;48.708;9.290;2023-05-08T05:50:27;98205.78;;;7.25;99.19
43741;BME280;29352;48.708;9.290;2023-05-08T05:52:53;98203.88;;;6.68;100.00
43741;BME280;29352;48.708;9.290;2023-05-08T05:55:19;98208.72;;;6.79;100.00
43741;BME280;29352;48.708;9.290;2023-05-08T05:57:45;98212.03;;;6.81;99.96
43741;BME280;29352;48.708;9.290;2023-05-08T06:00:10;98209.00;;;6.84;100.00
43741;BME280;29352;48.708;9.290;2023-05-08T06:02:36;98199.56;;;6.67;100.00
43741;BME280;29352;48.708;9.290;2023-05-08T06:05:02;98203.69;;;6.99;98.81
43741;BME280;29352;48.708;9.290;2023-05-08T06:07:29;98204.66;;;7.13;97.68
43741;BME280;29352;48.708;9.290;2023-05-08T06:09:54;98202.38;;;7.09;99.26
43741;BME280;29352;48.708;9.290;2023-05-08T06:12:20;98207.06;;;6.48;100.00
43741;BME280;29352;48.708;9.290;2023-05-08T06:14:46;98204.69;;;6.68;100.00
43741;BME280;29352;48.708;9.290;2023-05-08T06:17:12;98199.63;;;7.03;100.00
43741;BME280;29352;48.708;9.290;2023-05-08T06:19:37;98200.28;;;6.90;100.00
43741;BME280;29352;48.708;9.290;2023-05-08T06:22:03;98195.91;;;6.68;100.00
43741;BME280;29352;48.708;9.290;2023-05-08T06:24:28;98204.97;;;6.88;100.00
43741;BME280;29352;48.708;9.290;2023-05-08T06:26:54;98204.88;;;6.67;100.00
43741;BME280;29352;48.708;9.290;2023-05-08T06:29:19;98207.78;;;6.86;100.00
43741;BME280;29352;48.708;9.290;2023-05-08T06:31:44;98217.63;;;7.07;100.00
43741;BME280;29352;48.708;9.290;2023-05-08T06:34:10;98211.72;;;7.05;100.00
43741;BME280;29352;48.708;9.290;2023-05-08T06:36:36;98211.34;;;6.94;100.00
43741;BME280;29352;48.708;9.290;2023-05-08T06:39:04;98213.91;;;7.38;97.30
43741;BME280;29352;48.708;9.290;2023-05-08T06:41:30;98213.31;;;7.57;96.65
43741;BME280;29352;48.708;9.290;2023-05-08T06:43:56;98213.28;;;7.00;100.00
43741;BME280;29352;48.708;9.290;2023-05-08T06:46:21;98222.69;;;6.73;100.00
43741;BME280;29352;48.708;9.290;2023-05-08T06:48:47;98217.19;;;7.19;99.93
43741;BME280;29352;48.708;9.290;2023-05-08T06:51:12;98218.16;;;7.18;100.00
43741;BME280;29352;48.708;9.290;2023-05-08T06:53:38;98222.47;;;7.55;97.95
43741;BME280;29352;48.708;9.290;2023-05-08T06:56:03;98217.28;;;7.10;99.70
43741;BME280;29352;48.708;9.290;2023-05-08T06:58:30;98216.84;;;6.92;99.89
43741;BME280;29352;48.708;9.290;2023-05-08T07:00:58;98226.56;;;7.57;97.40
43741;BME280;29352;48.708;9.290;2023-05-08T07:03:25;98226.00;;;7.41;98.41
43741;BME280;29352;48.708;9.290;2023-05-08T07:05:52;98227.38;;;7.37;98.41
43741;BME280;29352;48.708;9.290;2023-05-08T07:08:18;98227.75;;;6.97;99.41
43741;BME280;29352;48.708;9.290;2023-05-08T07:10:43;98233.88;;;6.98;99.16
43741;BME280;29352;48.708;9.290;2023-05-08T07:13:09;98226.19;;;7.39;98.30
43741;BME280;29352;48.708;9.290;2023-05-08T07:15:34;98229.28;;;7.06;99.42
43741;BME280;29352;48.708;9.290;2023-05-08T07:18:00;98229.50;;;7.26;100.00
43741;BME280;29352;48.708;9.290;2023-05-08T07:20:26;98225.16;;;7.19;100.00
43741;BME280;29352;48.708;9.290;2023-05-08T07:22:52;98234.88;;;7.11;100.00
43741;BME280;29352;48.708;9.290;2023-05-08T07:25:17;98233.66;;;7.14;100.00
43741;BME280;29352;48.708;9.290;2023-05-08T07:27:43;98230.00;;;7.15;100.00
43741;BME280;29352;48.708;9.290;2023-05-08T07:30:08;98235.78;;;7.40;98.79
43741;BME280;29352;48.708;9.290;2023-05-08T07:32:35;98236.97;;;7.01;100.00
43741;BME280;29352;48.708;9.290;2023-05-08T07:35:02;98238.75;;;7.30;100.00
43741;BME280;29352;48.708;9.290;2023-05-08T07:37:30;98237.19;;;6.85;100.00
43741;BME280;29352;48.708;9.290;2023-05-08T07:39:57;98240.91;;;7.05;100.00
43741;BME280;29352;48.708;9.290;2023-05-08T07:42:22;98239.00;;;6.84;100.00
43741;BME280;29352;48.708;9.290;2023-05-08T07:44:48;98249.53;;;6.78;100.00
43741;BME280;29352;48.708;9.290;2023-05-08T07:47:13;98247.84;;;7.06;99.82
43741;BME280;29352;48.708;9.290;2023-05-08T07:49:39;98248.88;;;6.76;100.00
43741;BME280;29352;48.708;9.290;2023-05-08T07:52:04;98244.91;;;7.16;100.00
43741;BME280;29352;48.708;9.290;2023-05-08T07:54:30;98242.63;;;7.13;100.00
43741;BME280;29352;48.708;9.290;2023-05-08T07:56:55;98237.19;;;7.36;100.00
43741;BME280;29352;48.708;9.290;2023-05-08T07:59:21;98242.06;;;7.18;100.00
43741;BME280;29352;48.708;9.290;2023-05-08T08:01:46;98236.63;;;7.41;100.00
43741;BME280;29352;48.708;9.290;2023-05-08T08:04:12;98244.94;;;7.01;100.00
43741;BME280;29352;48.708;9.290;2023-05-08T08:06:41;98245.84;;;7.45;100.00
43741;BME280;29352;48.708;9.290;2023-05-08T08:09:07;98248.41;;;7.74;100.00
43741;BME280;29352;48.708;9.290;2023-05-08T08:11:32;98253.66;;;7.68;99.90
43741;BME280;29352;48.708;9.290;2023-05-08T08:13:58;98246.34;;;7.91;100.00
43741;BME280;29352;48.708;9.290;2023-05-08T08:16:23;98256.78;;;7.93;100.00
43741;BME280;29352;48.708;9.290;2023-05-08T08:18:49;98251.31;;;8.01;98.87
43741;BME280;29352;48.708;9.290;2023-05-08T08:21:16;98248.16;;;8.12;99.66
43741;BME280;29352;48.708;9.290;2023-05-08T08:23:42;98252.28;;;8.43;100.00
43741;BME280;29352;48.708;9.290;2023-05-08T08:26:07;98245.19;;;8.28;96.91
43741;BME280;29352;48.708;9.290;2023-05-08T08:28:32;98258.59;;;7.71;100.00
43741;BME280;29352;48.708;9.290;2023-05-08T08:30:58;98264.25;;;7.82;100.00
43741;BME280;29352;48.708;9.290;2023-05-08T08:33:26;98273.88;;;7.69;100.00
43741;BME280;29352;48.708;9.290;2023-05-08T08:35:53;98264.25;;;7.46;100.00
43741;BME280;29352;48.708;9.290;2023-05-08T08:38:18;98266.94;;;7.68;100.00
43741;BME280;29352;48.708;9.290;2023-05-08T08:40:44;98261.25;;;8.14;100.00
43741;BME280;29352;48.708;9.290;2023-05-08T08:43:09;98260.63;;;8.68;100.00
43741;BME280;29352;48.708;9.290;2023-05-08T08:45:36;98254.84;;;8.92;96.30
43741;BME280;29352;48.708;9.290;2023-05-08T08:48:03;98261.13;;;8.50;97.92
43741;BME280;29352;48.708;9.290;2023-05-08T08:50:32;98258.34;;;8.65;99.76
43741;BME280;29352;48.708;9.290;2023-05-08T08:53:10;98251.25;;;9.13;91.30
43741;BME280;29352;48.708;9.290;2023-05-08T08:55:49;98255.56;;;8.45;96.04
43741;BME280;29352;48.708;9.290;2023-05-08T08:58:21;98259.75;;;8.89;98.76
43741;BME280;29352;48.708;9.290;2023-05-08T09:00:58;98262.22;;;8.34;96.52
43741;BME280;29352;48.708;9.290;2023-05-08T09:03:25;98259.41;;;8.98;92.78
43741;BME280;29352;48.708;9.290;2023-05-08T09:05:52;98259.91;;;8.81;98.65
43741;BME280;29352;48.708;9.290;2023-05-08T09:08:18;98254.75;;;9.14;95.70
43741;BME280;29352;48.708;9.290;2023-05-08T09:10:45;98251.97;;;9.42;100.00
43741;BME280;29352;48.708;9.290;2023-05-08T09:13:11;98245.59;;;9.30;92.43
43741;BME280;29352;48.708;9.290;2023-05-08T09:15:36;98251.84;;;9.63;88.85
43741;BME280;29352;48.708;9.290;2023-05-08T09:18:02;98245.53;;;9.64;89.53
43741;BME280;29352;48.708;9.290;2023-05-08T09:20:28;98248.63;;;9.94;89.19
43741;BME280;29352;48.708;9.290;2023-05-08T09:22:54;98252.25;;;9.67;88.87
43741;BME280;29352;48.708;9.290;2023-05-08T09:25:22;98254.97;;;9.19;91.04
43741;BME280;29352;48.708;9.290;2023-05-08T09:27:47;98252.53;;;9.92;87.94
43741;BME280;29352;48.708;9.290;2023-05-08T09:30:13;98259.78;;;9.43;90.07
43741;BME280;29352;48.708;9.290;2023-05-08T09:32:42;98252.22;;;9.54;90.89
43741;BME280;29352;48.708;9.290;2023-05-08T09:35:10;98244.59;;;9.37;92.08
43741;BME280;29352;48.708;9.290;2023-05-08T09:37:41;98247.00;;;10.00;88.67
43741;BME280;29352;48.708;9.290;2023-05-08T09:40:18;98243.28;;;9.94;87.62
43741;BME280;29352;48.708;9.290;2023-05-08T09:42:46;98248.44;;;10.16;87.00
43741;BME280;29352;48.708;9.290;2023-05-08T09:45:28;98254.53;;;9.15;91.66
43741;BME280;29352;48.708;9.290;2023-05-08T09:47:55;98247.41;;;10.24;87.55
43741;BME280;29352;48.708;9.290;2023-05-08T09:50:21;98257.09;;;9.37;89.43
43741;BME280;29352;48.708;9.290;2023-05-08T09:52:47;98255.44;;;9.42;87.13
43741;BME280;29352;48.708;9.290;2023-05-08T09:55:15;98252.72;;;9.97;86.94
43741;BME280;29352;48.708;9.290;2023-05-08T09:58:01;98254.97;;;10.40;82.45
43741;BME280;29352;48.708;9.290;2023-05-08T10:00:28;98251.88;;;9.83;84.97
43741;BME280;29352;48.708;9.290;2023-05-08T10:02:59;98256.28;;;9.43;88.40
43741;BME280;29352;48.708;9.290;2023-05-08T10:05:31;98258.69;;;9.24;88.04
43741;BME280;29352;48.708;9.290;2023-05-08T10:08:20;98256.59;;;9.75;87.27
43741;BME280;29352;48.708;9.290;2023-05-08T10:10:47;98257.44;;;10.02;85.65
43741;BME280;29352;48.708;9.290;2023-05-08T10:13:13;98253.75;;;9.96;86.26
43741;BME280;29352;48.708;9.290;2023-05-08T10:15:43;98262.53;;;9.77;88.92
43741;BME280;29352;48.708;9.290;2023-05-08T10:18:10;98260.09;;;9.95;90.90
43741;BME280;29352;48.708;9.290;2023-05-08T10:20:40;98255.41;;;9.97;93.05
43741;BME280;29352;48.708;9.290;2023-05-08T10:23:14;98260.91;;;9.76;92.48
43741;BME280;29352;48.708;9.290;2023-05-08T10:25:44;98257.66;;;10.07;95.26
43741;BME280;29352;48.708;9.290;2023-05-08T10:28:28;98257.63;;;9.80;93.40
43741;BME280;29352;48.708;9.290;2023-05-08T10:31:02;98255.19;;;10.25;94.45
43741;BME280;29352;48.708;9.290;2023-05-08T10:33:30;98252.72;;;10.04;94.07
43741;BME280;29352;48.708;9.290;2023-05-08T10:36:00;98260.09;;;9.82;91.86
43741;BME280;29352;48.708;9.290;2023-05-08T10:38:27;98254.38;;;9.85;92.12
43741;BME280;29352;48.708;9.290;2023-05-08T10:40:59;98250.88;;;9.98;91.70
43741;BME280;29352;48.708;9.290;2023-05-08T10:43:28;98253.94;;;9.88;93.99
43741;BME280;29352;48.708;9.290;2023-05-08T10:45:56;98251.09;;;9.96;95.22
43741;BME280;29352;48.708;9.290;2023-05-08T10:48:54;98251.50;;;10.26;94.96
43741;BME280;29352;48.708;9.290;2023-05-08T10:54:20;98251.72;;;10.18;93.34
43741;BME280;29352;48.708;9.290;2023-05-08T10:56:50;98254.78;;;9.88;94.94
43741;BME280;29352;48.708;9.290;2023-05-08T10:59:19;98245.56;;;10.04;94.09
43741;BME280;29352;48.708;9.290;2023-05-08T11:01:48;98251.31;;;10.21;90.41
43741;BME280;29352;48.708;9.290;2023-05-08T11:04:23;98251.09;;;10.16;91.99
43741;BME280;29352;48.708;9.290;2023-05-08T11:06:49;98245.34;;;10.19;93.80
43741;BME280;29352;48.708;9.290;2023-05-08T11:09:28;98247.41;;;10.17;92.17
43741;BME280;29352;48.708;9.290;2023-05-08T11:14:54;98239.63;;;9.95;92.76
43741;BME280;29352;48.708;9.290;2023-05-08T11:17:25;98240.22;;;10.51;92.51
43741;BME280;29352;48.708;9.290;2023-05-08T11:19:56;98239.38;;;10.63;90.24
43741;BME280;29352;48.708;9.290;2023-05-08T11:22:31;98248.41;;;10.56;89.27
43741;BME280;29352;48.708;9.290;2023-05-08T11:25:09;98244.94;;;10.15;91.93
43741;BME280;29352;48.708;9.290;2023-05-08T11:30:19;98245.34;;;10.32;91.39
43741;BME280;29352;48.708;9.290;2023-05-08T11:38:17;98234.25;;;10.42;91.62
43741;BME280;29352;48.708;9.290;2023-05-08T11:46:51;98235.09;;;9.96;92.98
43741;BME280;29352;48.708;9.290;2023-05-08T11:49:20;98233.84;;;10.25;95.94
43741;BME280;29352;48.708;9.290;2023-05-08T11:51:52;98229.13;;;9.94;95.32
43741;BME280;29352;48.708;9.290;2023-05-08T11:54:22;98226.25;;;10.49;92.21
43741;BME280;29352;48.708;9.290;2023-05-08T11:56:51;98220.63;;;10.83;90.72
43741;BME280;29352;48.708;9.290;2023-05-08T11:59:19;98213.13;;;11.12;88.22
43741;BME280;29352;48.708;9.290;2023-05-08T12:01:47;98222.66;;;10.95;92.91
43741;BME280;29352;48.708;9.290;2023-05-08T12:04:14;98223.28;;;10.97;92.05
43741;BME280;29352;48.708;9.290;2023-05-08T12:06:40;98230.13;;;11.24;89.76
43741;BME280;29352;48.708;9.290;2023-05-08T12:09:12;98224.00;;;11.17;89.78
43741;BME280;29352;48.708;9.290;2023-05-08T12:11:40;98227.19;;;11.46;86.27
43741;BME280;29352;48.708;9.290;2023-05-08T12:14:08;98229.72;;;11.34;87.75
43741;BME280;29352;48.708;9.290;2023-05-08T12:16:36;98220.66;;;11.28;86.77
43741;BME280;29352;48.708;9.290;2023-05-08T12:19:03;98227.13;;;12.09;78.85
43741;BME280;29352;48.708;9.290;2023-05-08T12:21:33;98225.88;;;11.62;80.19
43741;BME280;29352;48.708;9.290;2023-05-08T12:23:59;98221.06;;;11.39;82.08
43741;BME280;29352;48.708;9.290;2023-05-08T12:26:24;98224.31;;;10.96;84.99
43741;BME280;29352;48.708;9.290;2023-05-08T12:28:54;98219.47;;;10.66;85.52
43741;BME280;29352;48.708;9.290;2023-05-08T12:31:21;98216.94;;;11.29;82.24
43741;BME280;29352;48.708;9.290;2023-05-08T12:33:47;98226.88;;;11.60;80.87
43741;BME280;29352;48.708;9.290;2023-05-08T12:36:14;98220.53;;;11.87;77.87
43741;BME280;29352;48.708;9.290;2023-05-08T12:38:40;98217.69;;;11.81;81.86
43741;BME280;29352;48.708;9.290;2023-05-08T12:41:05;98223.53;;;11.72;86.85
43741;BME280;29352;48.708;9.290;2023-05-08T12:43:34;98223.66;;;12.08;82.98
43741;BME280;29352;48.708;9.290;2023-05-08T12:46:01;98219.28;;;12.39;81.13
43741;BME280;29352;48.708;9.290;2023-05-08T12:48:28;98220.59;;;12.73;74.58
43741;BME280;29352;48.708;9.290;2023-05-08T12:51:01;98226.78;;;12.30;77.82
43741;BME280;29352;48.708;9.290;2023-05-08T12:53:30;98225.22;;;12.66;78.74
43741;BME280;29352;48.708;9.290;2023-05-08T12:56:00;98220.44;;;12.00;81.19
43741;BME280;29352;48.708;9.290;2023-05-08T12:58:30;98208.69;;;13.06;74.55
43741;BME280;29352;48.708;9.290;2023-05-08T13:01:09;98222.47;;;12.04;79.48
43741;BME280;29352;48.708;9.290;2023-05-08T13:03:40;98225.19;;;12.23;78.90
43741;BME280;29352;48.708;9.290;2023-05-08T13:06:06;98225.50;;;12.76;76.09
43741;BME280;29352;48.708;9.290;2023-05-08T13:08:34;98219.47;;;12.63;74.99
43741;BME280;29352;48.708;9.290;2023-05-08T13:11:03;98231.53;;;12.90;72.90
43741;BME280;29352;48.708;9.290;2023-05-08T13:13:31;98216.19;;;12.79;73.87
43741;BME280;29352;48.708;9.290;2023-05-08T13:16:02;98217.03;;;12.18;77.81
43741;BME280;29352;48.708;9.290;2023-05-08T13:18:29;98206.63;;;12.90;74.95
43741;BME280;29352;48.708;9.290;2023-05-08T13:20:55;98215.56;;;12.40;77.56
43741;BME280;29352;48.708;9.290;2023-05-08T13:23:20;98204.53;;;12.73;77.17
43741;BME280;29352;48.708;9.290;2023-05-08T13:25:46;98215.41;;;11.53;78.28
43741;BME280;29352;48.708;9.290;2023-05-08T13:28:12;98216.31;;;11.41;79.55
43741;BME280;29352;48.708;9.290;2023-05-08T13:30:37;98212.56;;;11.03;81.43
43741;BME280;29352;48.708;9.290;2023-05-08T13:33:04;98216.53;;;11.71;77.61
43741;BME280;29352;48.708;9.290;2023-05-08T13:35:30;98201.91;;;10.97;81.26
43741;BME280;29352;48.708;9.290;2023-05-08T13:37:58;98214.88;;;12.01;77.68
43741;BME280;29352;48.708;9.290;2023-05-08T13:40:24;98202.41;;;11.19;78.79
43741;BME280;29352;48.708;9.290;2023-05-08T13:42:50;98203.13;;;12.52;76.88
43741;BME280;29352;48.708;9.290;2023-05-08T13:45:17;98200.81;;;11.81;75.73
43741;BME280;29352;48.708;9.290;2023-05-08T13:47:44;98188.84;;;11.20;80.32
43741;BME280;29352;48.708;9.290;2023-05-08T13:50:12;98194.81;;;12.17;77.33
43741;BME280;29352;48.708;9.290;2023-05-08T13:52:40;98183.63;;;10.94;80.06
43741;BME280;29352;48.708;9.290;2023-05-08T13:55:07;98174.91;;;10.47;82.57
43741;BME280;29352;48.708;9.290;2023-05-08T13:57:34;98176.28;;;11.34;80.55
43741;BME280;29352;48.708;9.290;2023-05-08T14:00:00;98181.56;;;11.97;76.18
43741;BME280;29352;48.708;9.290;2023-05-08T14:02:28;98178.31;;;12.20;75.30